Time;durP1;ratioP1;P1;durP2;ratioP2;P2;SDS_P1;SDS_P2;PMS_P1;PMS_P2;Temp;Humidity;BMP_temperature;BMP_pressure;BME280_temperature;BME280_humidity;BME280_pressure;Samples;Min_cycle;Max_cycle;Signal;HPM_P1;HPM_P2
2023/03/07 00:02:21;;;;;;;;;;;;;;;;;;6301446;22;19998;-56
2023/03/07 00:04:55;;;;;;;;;;;;;;;;;;6302176;22;20010;-56
2023/03/07 00:07:22;;;;;;;;;;;;;;;;;;6301720;22;19957;-54
2023/03/07 00:09:56;;;;;;;;;;;;;;;;;;6300577;22;20467;-51
2023/03/07 00:12:23;;;;;;;;;;;;;;;;;;6300098;22;19925;-54
2023/03/07 00:14:57;;;;;;;;;;;;;;;;;;6300995;22;20391;-57
2023/03/07 00:17:24;;;;;;;;;;;;;;;;;;6301221;22;19919;-52
2023/03/07 00:19:51;;;;;;;;;;;;;;;;;;6301379;22;19954;-55
2023/03/07 00:22:25;;;;;;;;;;;;;;;;;;6299796;22;19922;-54
2023/03/07 00:24:52;;;;;;;;;;;;;;;;;;6300082;22;20344;-54
2023/03/07 00:27:26;;;;;;;;;;;;;;;;;;6300287;22;19961;-54
2023/03/07 00:29:53;;;;;;;;;;;;;;;;;;6301188;22;19919;-50
2023/03/07 00:32:20;;;;;;;;;;;;;;;;;;6301082;22;20392;-52
2023/03/07 00:34:54;;;;;;;;;;;;;;;;;;6301537;22;19972;-49
2023/03/07 00:37:21;;;;;;;;;;;;;;;;;;6300426;22;19937;-54
2023/03/07 00:39:55;;;;;;;;;;;;;;;;;;6301022;22;19997;-49
2023/03/07 00:42:22;;;;;;;;;;;;;;;;;;6300534;22;19989;-56
2023/03/07 00:44:56;;;;;;;;;;;;;;;;;;6300600;22;19994;-59
2023/03/07 00:47:23;;;;;;;;;;;;;;;;;;6301027;22;19915;-59
2023/03/07 00:49:50;;;;;;;;;;;;;;;;;;6300205;22;20434;-58
2023/03/07 00:52:24;;;;;;;;;;;;;;;;;;6300171;22;19915;-62
2023/03/07 00:54:52;;;;;;;;;;;;;;;;;;6299875;22;20311;-60
2023/03/07 00:57:25;;;;;;;;;;;;;;;;;;6300141;22;20415;-59
2023/03/07 00:59:52;;;;;;;;;;;;;;;;;;6300880;22;19990;-58
2023/03/07 01:02:19;;;;;;;;;;;;;;;;;;6300832;22;19938;-60
2023/03/07 01:04:53;;;;;;;;;;;;;;;;;;6300316;22;19998;-60
2023/03/07 01:07:20;;;;;;;;;;;;;;;;;;6300880;22;20387;-61
2023/03/07 01:09:54;;;;;;;;;;;;;;;;;;6300490;22;19918;-55
2023/03/07 01:12:21;;;;;;;;;;;;;;;;;;6299251;22;19918;-57
2023/03/07 01:14:55;;;;;;;;;;;;;;;;;;6300855;22;20709;-60
2023/03/07 01:17:22;;;;;;;;;;;;;;;;;;6300523;22;20303;-58
2023/03/07 01:19:49;;;;;;;;;;;;;;;;;;6300485;22;19997;-60
2023/03/07 01:22:23;;;;;;;;;;;;;;;;;;6299558;22;19994;-59
2023/03/07 01:24:50;;;;;;;;;;;;;;;;;;6301570;22;19989;-59
2023/03/07 01:27:24;;;;;;;;;;;;;;;;;;6300726;22;19921;-51
2023/03/07 01:29:51;;;;;;;;;;;;;;;;;;6300068;22;20376;-58
2023/03/07 01:32:18;;;;;;;;;;;;;;;;;;6300511;22;19994;-57
2023/03/07 01:34:52;;;;;;;;;;;;;;;;;;6300757;22;19988;-57
2023/03/07 01:37:19;;;;;;;;;;;;;;;;;;6301015;22;20019;-57
2023/03/07 01:39:53;;;;;;;;;;;;;;;;;;6299713;22;19919;-64
2023/03/07 01:42:20;;;;;;;;;;;;;;;;;;6299497;22;19921;-64
2023/03/07 01:44:47;;;;;;;;;;;;;;;;;;6300857;22;20336;-63
2023/03/07 01:47:21;;;;;;;;;;;;;;;;;;6300202;22;20317;-64
2023/03/07 01:49:48;;;;;;;;;;;;;;;;;;6300040;22;19998;-64
2023/03/07 01:52:22;;;;;;;;;;;;;;;;;;6300579;22;19918;-64
2023/03/07 01:54:50;;;;;;;;;;;;;;;;;;6300594;22;19981;-46
2023/03/07 01:57:17;;;;;;;;;;;;;;;;;;6298393;22;19990;-49
2023/03/07 01:59:50;;;;;;;;;;;;;;;;;;6301524;22;19915;-48
2023/03/07 02:02:18;;;;;;;;;;;;;;;;;;6300854;22;19925;-48
2023/03/07 02:04:51;;;;;;;;;;;;;;;;;;6300349;22;19989;-55
2023/03/07 02:07:18;;;;;;;;;;;;;;;;;;6299499;22;19951;-56
2023/03/07 02:09:52;;;;;;;;;;;;;;;;;;6300328;22;19982;-64
2023/03/07 02:12:19;;;;;;;;;;;;;;;;;;6299949;22;19978;-64
2023/03/07 02:14:53;;;;;;;;;;;;;;;;;;6300214;22;19985;-64
2023/03/07 02:17:20;;;;;;;;;;;;;;;;;;6300112;22;19915;-64
2023/03/07 02:19:48;;;;;;;;;;;;;;;;;;6299544;22;20328;-64
2023/03/07 02:22:21;;;;;;;;;;;;;;;;;;6300294;22;19915;-64
2023/03/07 02:24:48;;;;;;;;;;;;;;;;;;6299773;22;19915;-59
2023/03/07 02:27:22;;;;;;;;;;;;;;;;;;6298565;22;19998;-59
2023/03/07 02:29:55;;;;;;;;;;;;;;;;;;6300785;22;19998;-60
2023/03/07 02:32:29;;;;;;;;;;;;;;;;;;6301116;22;20229;-58
2023/03/07 02:34:57;;;;;;;;;;;;;;;;;;6298860;22;19998;-64
2023/03/07 02:37:30;;;;;;;;;;;;;;;;;;6300491;22;19923;-52
2023/03/07 02:39:57;;;;;;;;;;;;;;;;;;6298435;22;19946;-51
2023/03/07 02:42:31;;;;;;;;;;;;;;;;;;6299169;22;19919;-50
2023/03/07 02:44:58;;;;;;;;;;;;;;;;;;6300074;22;19936;-47
2023/03/07 02:47:31;;;;;;;;;;;;;;;;;;6299752;22;19990;-49
2023/03/07 02:49:58;;;;;;;;;;;;;;;;;;6298287;22;19915;-53
2023/03/07 02:52:27;;;;;;;;;;;;;;;;;;6301271;22;19983;-64
2023/03/07 02:55:00;;;;;;;;;;;;;;;;;;6299766;22;19998;-64
2023/03/07 02:57:27;;;;;;;;;;;;;;;;;;6299235;22;19915;-64
2023/03/07 03:00:03;;;;;;;;;;;;;;;;;;6299846;22;19921;-65
2023/03/07 03:02:30;;;;;;;;;;;;;;;;;;6300711;22;19919;-64
2023/03/07 03:04:57;;;;;;;;;;;;;;;;;;6298961;22;19942;-59
2023/03/07 03:07:31;;;;;;;;;;;;;;;;;;6299052;22;20293;-58
2023/03/07 03:09:58;;;;;;;;;;;;;;;;;;6300153;22;19997;-60
2023/03/07 03:12:32;;;;;;;;;;;;;;;;;;6300601;22;19914;-59
2023/03/07 03:14:59;;;;;;;;;;;;;;;;;;6300850;22;20328;-59
2023/03/07 03:17:26;;;;;;;;;;;;;;;;;;6302513;22;19922;-60
2023/03/07 03:20:00;;;;;;;;;;;;;;;;;;6301729;22;20017;-59
2023/03/07 03:22:27;;;;;;;;;;;;;;;;;;6302419;22;19986;-56
2023/03/07 03:25:01;;;;;;;;;;;;;;;;;;6301157;22;20705;-59
2023/03/07 03:27:28;;;;;;;;;;;;;;;;;;6300975;22;19954;-59
2023/03/07 03:29:55;;;;;;;;;;;;;;;;;;6299831;22;19994;-58
2023/03/07 03:32:29;;;;;;;;;;;;;;;;;;6302573;22;19921;-57
2023/03/07 03:34:56;;;;;;;;;;;;;;;;;;6300752;22;19918;-54
2023/03/07 03:37:30;;;;;;;;;;;;;;;;;;6301364;22;20014;-47
2023/03/07 03:39:57;;;;;;;;;;;;;;;;;;6301347;22;19993;-46
2023/03/07 03:42:31;;;;;;;;;;;;;;;;;;6300780;22;20320;-48
2023/03/07 03:44:58;;;;;;;;;;;;;;;;;;6301244;22;19914;-49
2023/03/07 03:47:25;;;;;;;;;;;;;;;;;;6274558;22;19919;-51
2023/03/07 03:49:59;;;;;;;;;;;;;;;;;;6302454;22;19915;-59
2023/03/07 03:52:26;;;;;;;;;;;;;;;;;;6302286;22;20278;-61
2023/03/07 03:55:00;;;;;;;;;;;;;;;;;;6301200;22;19925;-57
2023/03/07 03:57:27;;;;;;;;;;;;;;;;;;6300520;22;20419;-57
2023/03/07 04:00:03;;;;;;;;;;;;;;;;;;6301099;22;19921;-56
2023/03/07 04:02:32;;;;;;;;;;;;;;;;;;6301871;22;19919;-55
2023/03/07 04:05:06;;;;;;;;;;;;;;;;;;6300327;22;19922;-55
2023/03/07 04:07:33;;;;;;;;;;;;;;;;;;6297628;22;19994;-57
2023/03/07 04:10:00;;;;;;;;;;;;;;;;;;6300245;22;19914;-57
2023/03/07 04:12:33;;;;;;;;;;;;;;;;;;6299710;22;19993;-56
2023/03/07 04:15:00;;;;;;;;;;;;;;;;;;6302150;22;19981;-54
2023/03/07 04:17:34;;;;;;;;;;;;;;;;;;6302557;22;20006;-54
2023/03/07 04:20:03;;;;;;;;;;;;;;;;;;6273911;22;19985;-56
2023/03/07 04:22:30;;;;;;;;;;;;;;;;;;6300698;22;20252;-57
2023/03/07 04:25:04;;;;;;;;;;;;;;;;;;6300089;22;19925;-53
2023/03/07 04:27:34;;;;;;;;;;;;;;;;;;6301059;22;20001;-53
2023/03/07 04:30:07;;;;;;;;;;;;;;;;;;6300984;22;19961;-56
2023/03/07 04:32:35;;;;;;;;;;;;;;;;;;6301686;22;19918;-53
2023/03/07 04:35:08;;;;;;;;;;;;;;;;;;6300307;22;20256;-52
2023/03/07 04:37:36;;;;;;;;;;;;;;;;;;6301607;22;19915;-55
2023/03/07 04:40:03;;;;;;;;;;;;;;;;;;6300138;22;19938;-53
2023/03/07 04:42:37;;;;;;;;;;;;;;;;;;6301485;22;19923;-54
2023/03/07 04:45:04;;;;;;;;;;;;;;;;;;6300957;22;20259;-52
2023/03/07 04:47:31;;;;;;;;;;;;;;;;;;6301735;22;19925;-48
2023/03/07 04:50:04;;;;;;;;;;;;;;;;;;6300709;22;20374;-48
2023/03/07 04:52:32;;;;;;;;;;;;;;;;;;6301216;22;19993;-50
2023/03/07 04:55:06;;;;;;;;;;;;;;;;;;6300192;22;19946;-50
2023/03/07 04:57:33;;;;;;;;;;;;;;;;;;6299397;22;19994;-59
2023/03/07 05:00:00;;;;;;;;;;;;;;;;;;6299968;22;20644;-57
2023/03/07 05:02:33;;;;;;;;;;;;;;;;;;6299053;22;20337;-59
2023/03/07 05:05:00;;;;;;;;;;;;;;;;;;6300781;22;19949;-57
2023/03/07 05:07:34;;;;;;;;;;;;;;;;;;6300477;22;19915;-55
2023/03/07 05:10:01;;;;;;;;;;;;;;;;;;6298742;22;20017;-57
2023/03/07 05:12:28;;;;;;;;;;;;;;;;;;6301312;22;19921;-54
2023/03/07 05:15:02;;;;;;;;;;;;;;;;;;6301421;22;19943;-58
2023/03/07 05:17:30;;;;;;;;;;;;;;;;;;6301220;22;19919;-58
2023/03/07 05:20:03;;;;;;;;;;;;;;;;;;6298470;22;19994;-59
2023/03/07 05:22:30;;;;;;;;;;;;;;;;;;6300699;22;20333;-59
2023/03/07 05:24:57;;;;;;;;;;;;;;;;;;6300031;22;19997;-56
2023/03/07 05:27:31;;;;;;;;;;;;;;;;;;6299954;22;20001;-63
2023/03/07 05:29:58;;;;;;;;;;;;;;;;;;6299907;22;20001;-63
2023/03/07 05:32:32;;;;;;;;;;;;;;;;;;6301109;22;19997;-63
2023/03/07 05:34:59;;;;;;;;;;;;;;;;;;6299670;22;20336;-64
2023/03/07 05:37:26;;;;;;;;;;;;;;;;;;6300437;22;19921;-63
2023/03/07 05:40:00;;;;;;;;;;;;;;;;;;6298635;22;20280;-65
2023/03/07 05:42:27;;;;;;;;;;;;;;;;;;6297579;22;19988;-59
2023/03/07 05:45:01;;;;;;;;;;;;;;;;;;6296781;22;19980;-60
2023/03/07 05:47:29;;;;;;;;;;;;;;;;;;6299496;22;20396;-56
2023/03/07 05:49:56;;;;;;;;;;;;;;;;;;6298466;22;20006;-58
2023/03/07 05:52:29;;;;;;;;;;;;;;;;;;6299507;22;20331;-59
2023/03/07 05:54:56;;;;;;;;;;;;;;;;;;6297825;22;19954;-57
2023/03/07 05:57:30;;;;;;;;;;;;;;;;;;6300481;22;19915;-58
2023/03/07 05:59:57;;;;;;;;;;;;;;;;;;6297134;22;19958;-60
2023/03/07 06:02:24;;;;;;;;;;;;;;;;;;6299948;22;19997;-59
2023/03/07 06:04:58;;;;;;;;;;;;;;;;;;6298277;22;19919;-60
2023/03/07 06:07:26;;;;;;;;;;;;;;;;;;6297297;22;19919;-60
2023/03/07 06:09:59;;;;;;;;;;;;;;;;;;6299540;22;20243;-60
2023/03/07 06:12:26;;;;;;;;;;;;;;;;;;6301921;22;20336;-56
2023/03/07 06:14:53;;;;;;;;;;;;;;;;;;6299425;22;20025;-57
2023/03/07 06:17:27;;;;;;;;;;;;;;;;;;6300666;22;19925;-53
2023/03/07 06:19:54;;;;;;;;;;;;;;;;;;6300635;22;19914;-55
2023/03/07 06:22:30;;;;;;;;;;;;;;;;;;6298938;22;19929;-53
2023/03/07 06:24:57;;;;;;;;;;;;;;;;;;6299701;22;19923;-59
2023/03/07 06:27:25;;;;;;;;;;;;;;;;;;6301223;22;20022;-59
2023/03/07 06:29:58;;;;;;;;;;;;;;;;;;6300377;22;20335;-60
2023/03/07 06:32:25;;;;;;;;;;;;;;;;;;6300932;22;19981;-61
2023/03/07 06:34:59;;;;;;;;;;;;;;;;;;6299807;22;20302;-59
2023/03/07 06:37:26;;;;;;;;;;;;;;;;;;6300715;22;19915;-60
2023/03/07 06:39:54;;;;;;;;;;;;;;;;;;6299702;22;20313;-51
2023/03/07 06:42:27;;;;;;;;;;;;;;;;;;6301792;22;20001;-52
2023/03/07 06:44:54;;;;;;;;;;;;;;;;;;6300438;22;20702;-51
2023/03/07 06:47:28;;;;;;;;;;;;;;;;;;6302529;22;19972;-55
2023/03/07 06:49:55;;;;;;;;;;;;;;;;;;6301055;22;19942;-54
2023/03/07 06:52:23;;;;;;;;;;;;;;;;;;6302860;22;19954;-58
2023/03/07 06:54:56;;;;;;;;;;;;;;;;;;6301831;22;19915;-60
2023/03/07 06:57:23;;;;;;;;;;;;;;;;;;6303524;22;20312;-59
2023/03/07 06:59:57;;;;;;;;;;;;;;;;;;6301412;22;19968;-60
2023/03/07 07:02:24;;;;;;;;;;;;;;;;;;6302810;22;19925;-60
2023/03/07 07:04:58;;;;;;;;;;;;;;;;;;6301569;22;19919;-60
2023/03/07 07:07:27;;;;;;;;;;;;;;;;;;6302386;22;19918;-60
2023/03/07 07:10:00;;;;;;;;;;;;;;;;;;6302899;22;20013;-60
2023/03/07 07:12:27;;;;;;;;;;;;;;;;;;6303116;22;20009;-60
2023/03/07 07:14:55;;;;;;;;;;;;;;;;;;6301825;22;19990;-60
2023/03/07 07:17:28;;;;;;;;;;;;;;;;;;6302467;22;20332;-61
2023/03/07 07:19:55;;;;;;;;;;;;;;;;;;6300584;22;20002;-51
2023/03/07 07:22:29;;;;;;;;;;;;;;;;;;6301933;22;19918;-55
2023/03/07 07:24:56;;;;;;;;;;;;;;;;;;6301934;22;20011;-55
2023/03/07 07:27:23;;;;;;;;;;;;;;;;;;6303034;22;19925;-56
2023/03/07 07:29:57;;;;;;;;;;;;;;;;;;6302008;22;19998;-57
2023/03/07 07:32:24;;;;;;;;;;;;;;;;;;6302637;22;19938;-53
2023/03/07 07:34:59;;;;;;;;;;;;;;;;;;6300961;22;19915;-56
2023/03/07 07:37:26;;;;;;;;;;;;;;;;;;6302668;22;19922;-60
2023/03/07 07:39:53;;;;;;;;;;;;;;;;;;6301387;22;19914;-56
2023/03/07 07:42:26;;;;;;;;;;;;;;;;;;6303013;22;20013;-58
2023/03/07 07:44:53;;;;;;;;;;;;;;;;;;6301711;22;20001;-57
2023/03/07 07:47:27;;;;;;;;;;;;;;;;;;6303285;22;19947;-57
2023/03/07 07:49:54;;;;;;;;;;;;;;;;;;6273949;22;19989;-63
2023/03/07 07:52:21;;;;;;;;;;;;;;;;;;6301093;22;20378;-64
2023/03/07 07:54:55;;;;;;;;;;;;;;;;;;6300930;22;19914;-65
2023/03/07 07:57:22;;;;;;;;;;;;;;;;;;6302908;22;19938;-64
2023/03/07 08:00:03;;;;;;;;;;;;;;;;;;6301328;22;20002;-64
2023/03/07 08:02:30;;;;;;;;;;;;;;;;;;6302844;22;19961;-63
2023/03/07 08:05:05;;;;;;;;;;;;;;;;;;6302289;22;20287;-54
2023/03/07 08:07:32;;;;;;;;;;;;;;;;;;6301298;22;19919;-55
2023/03/07 08:09:59;;;;;;;;;;;;;;;;;;6301356;22;20013;-50
2023/03/07 08:12:32;;;;;;;;;;;;;;;;;;6302224;22;19914;-52
2023/03/07 08:14:59;;;;;;;;;;;;;;;;;;6301815;22;19990;-56
2023/03/07 08:17:26;;;;;;;;;;;;;;;;;;6301398;22;19915;-58
2023/03/07 08:20:06;;;;;;;;;;;;;;;;;;6301889;22;20010;-59
2023/03/07 08:22:42;;;;;;;;;;;;;;;;;;6300680;22;19922;-58
2023/03/07 08:25:09;;;;;;;;;;;;;;;;;;6300559;22;20502;-58
2023/03/07 08:27:36;;;;;;;;;;;;;;;;;;6302172;22;19958;-58
2023/03/07 08:30:10;;;;;;;;;;;;;;;;;;6301511;22;19934;-59
2023/03/07 08:32:37;;;;;;;;;;;;;;;;;;6301699;22;20654;-59
2023/03/07 08:35:11;;;;;;;;;;;;;;;;;;6301205;22;20362;-64
2023/03/07 08:37:39;;;;;;;;;;;;;;;;;;6301949;22;20398;-64
2023/03/07 08:40:13;;;;;;;;;;;;;;;;;;6300953;22;19922;-63
2023/03/07 08:42:40;;;;;;;;;;;;;;;;;;6303012;22;19921;-64
2023/03/07 08:45:07;;;;;;;;;;;;;;;;;;6299914;22;19972;-56
2023/03/07 08:47:40;;;;;;;;;;;;;;;;;;6301604;22;20267;-57
2023/03/07 08:50:07;;;;;;;;;;;;;;;;;;6300714;22;19998;-58
2023/03/07 08:52:41;;;;;;;;;;;;;;;;;;6301545;22;19925;-58
2023/03/07 08:55:09;;;;;;;;;;;;;;;;;;6300121;22;20010;-57
2023/03/07 08:57:36;;;;;;;;;;;;;;;;;;6302520;22;19950;-57
2023/03/07 09:00:11;;;;;;;;;;;;;;;;;;6300159;22;19950;-55
2023/03/07 09:02:38;;;;;;;;;;;;;;;;;;6300861;22;19915;-58
2023/03/07 09:05:11;;;;;;;;;;;;;;;;;;6301434;22;19949;-57
2023/03/07 09:07:38;;;;;;;;;;;;;;;;;;6300785;22;19974;-58
2023/03/07 09:10:05;;;;;;;;;;;;;;;;;;6300959;22;19941;-57
2023/03/07 09:12:39;;;;;;;;;;;;;;;;;;6302228;22;19925;-54
2023/03/07 09:15:07;;;;;;;;;;;;;;;;;;6300159;22;20001;-57
2023/03/07 09:17:34;;;;;;;;;;;;;;;;;;6301513;22;20002;-55
2023/03/07 09:20:07;;;;;;;;;;;;;;;;;;6300831;22;19919;-52
2023/03/07 09:22:34;;;;;;;;;;;;;;;;;;6301379;22;19922;-52
2023/03/07 09:25:09;;;;;;;;;;;;;;;;;;6300538;22;20293;-54
2023/03/07 09:27:36;;;;;;;;;;;;;;;;;;6301274;22;20325;-57
2023/03/07 09:30:03;;;;;;;;;;;;;;;;;;6299668;22;19997;-55
2023/03/07 09:32:36;;;;;;;;;;;;;;;;;;6301815;22;20009;-64
2023/03/07 09:35:03;;;;;;;;;;;;;;;;;;6300486;22;19929;-64
2023/03/07 09:37:37;;;;;;;;;;;;;;;;;;6301334;22;19938;-63
2023/03/07 09:40:06;;;;;;;;;;;;;;;;;;6300463;22;19937;-64
2023/03/07 09:42:33;;;;;;;;;;;;;;;;;;6302027;22;19922;-57
2023/03/07 09:45:06;;;;;;;;;;;;;;;;;;6299939;22;20009;-57
2023/03/07 09:47:33;;;;;;;;;;;;;;;;;;6300553;22;20009;-55
2023/03/07 09:50:08;;;;;;;;;;;;;;;;;;6299887;22;19961;-54
2023/03/07 09:52:35;;;;;;;;;;;;;;;;;;6273221;22;19914;-54
2023/03/07 09:55:02;;;;;;;;;;;;;;;;;;6300620;22;19921;-57
2023/03/07 09:57:36;;;;;;;;;;;;;;;;;;6301695;22;19939;-53
2023/03/07 10:00:04;;;;;;;;;;;;;;;;;;6300793;22;19997;-57
2023/03/07 10:02:38;;;;;;;;;;;;;;;;;;6301308;22;19941;-56
2023/03/07 10:05:05;;;;;;;;;;;;;;;;;;6300507;22;20395;-57
2023/03/07 10:07:39;;;;;;;;;;;;;;;;;;6300771;22;20005;-57
2023/03/07 10:10:06;;;;;;;;;;;;;;;;;;6300243;22;19986;-59
2023/03/07 10:12:40;;;;;;;;;;;;;;;;;;6302374;22;19954;-61
2023/03/07 10:15:07;;;;;;;;;;;;;;;;;;6298490;22;19919;-61
2023/03/07 10:17:41;;;;;;;;;;;;;;;;;;6300881;22;19972;-61
2023/03/07 10:20:09;;;;;;;;;;;;;;;;;;6299933;22;19976;-61
2023/03/07 10:22:36;;;;;;;;;;;;;;;;;;6301266;22;19915;-61
2023/03/07 10:25:15;;;;;;;;;;;;;;;;;;6297598;22;19950;-62
2023/03/07 10:27:49;;;;;;;;;;;;;;;;;;6302899;22;19914;-58
2023/03/07 10:30:17;;;;;;;;;;;;;;;;;;6298914;22;19915;-55
2023/03/07 10:32:44;;;;;;;;;;;;;;;;;;6300466;22;19915;-57
2023/03/07 10:35:19;;;;;;;;;;;;;;;;;;6299914;22;19950;-54
2023/03/07 10:37:49;;;;;;;;;;;;;;;;;;6301434;22;19938;-60
2023/03/07 10:40:22;;;;;;;;;;;;;;;;;;6298976;22;20322;-50
2023/03/07 10:42:50;;;;;;;;;;;;;;;;;;6301873;22;19915;-55
2023/03/07 10:45:17;;;;;;;;;;;;;;;;;;6299778;22;20332;-49
2023/03/07 10:47:50;;;;;;;;;;;;;;;;;;6299836;22;19997;-48
2023/03/07 10:50:17;;;;;;;;;;;;;;;;;;6299583;22;20328;-49
2023/03/07 10:52:54;;;;;;;;;;;;;;;;;;6300444;22;19994;-51
2023/03/07 10:55:30;;;;;;;;;;;;;;;;;;6299842;22;19921;-53
2023/03/07 10:58:04;;;;;;;;;;;;;;;;;;6301608;22;19918;-59
2023/03/07 11:00:38;;;;;;;;;;;;;;;;;;6299711;22;19958;-59
2023/03/07 11:03:05;;;;;;;;;;;;;;;;;;6299087;22;20375;-59
2023/03/07 11:05:39;;;;;;;;;;;;;;;;;;6301114;22;19981;-49
2023/03/07 11:08:06;;;;;;;;;;;;;;;;;;6299529;22;19950;-61
2023/03/07 11:10:40;;;;;;;;;;;;;;;;;;6300603;22;20002;-55
2023/03/07 11:13:07;;;;;;;;;;;;;;;;;;6301378;22;19954;-54
2023/03/07 11:15:43;;;;;;;;;;;;;;;;;;6300350;22;19919;-54
2023/03/07 11:18:10;;;;;;;;;;;;;;;;;;6299259;22;19929;-54
2023/03/07 11:20:37;;;;;;;;;;;;;;;;;;6300910;22;20320;-56
2023/03/07 11:23:12;;;;;;;;;;;;;;;;;;6298500;22;20320;-54
2023/03/07 11:25:39;;;;;;;;;;;;;;;;;;6300235;22;19930;-53
2023/03/07 11:28:12;;;;;;;;;;;;;;;;;;6301400;22;20005;-52
2023/03/07 11:30:39;;;;;;;;;;;;;;;;;;6300371;22;20241;-53
2023/03/07 11:33:13;;;;;;;;;;;;;;;;;;6302246;22;19915;-54
2023/03/07 11:35:40;;;;;;;;;;;;;;;;;;6301652;22;19918;-58
2023/03/07 11:38:14;;;;;;;;;;;;;;;;;;6301730;22;19914;-59
2023/03/07 11:40:42;;;;;;;;;;;;;;;;;;6301429;22;20655;-59
2023/03/07 11:43:15;;;;;;;;;;;;;;;;;;6303201;22;19998;-58
2023/03/07 11:45:43;;;;;;;;;;;;;;;;;;6301675;22;19958;-58
2023/03/07 11:48:16;;;;;;;;;;;;;;;;;;6301240;22;19990;-58
2023/03/07 11:50:43;;;;;;;;;;;;;;;;;;6302309;22;19918;-59
2023/03/07 11:53:10;;;;;;;;;;;;;;;;;;6302087;22;19982;-59
2023/03/07 11:55:44;;;;;;;;;;;;;;;;;;6302226;22;19919;-59
2023/03/07 11:58:11;;;;;;;;;;;;;;;;;;6302787;22;19918;-59
2023/03/07 12:00:45;;;;;;;;;;;;;;;;;;6301730;22;19918;-58
2023/03/07 12:03:12;;;;;;;;;;;;;;;;;;6300651;22;20252;-53
2023/03/07 12:05:39;;;;;;;;;;;;;;;;;;6302169;22;19918;-59
2023/03/07 12:08:13;;;;;;;;;;;;;;;;;;6299950;22;19918;-59
2023/03/07 12:10:47;;;;;;;;;;;;;;;;;;6301258;22;19958;-59
2023/03/07 12:13:14;;;;;;;;;;;;;;;;;;6303163;22;19937;-59
2023/03/07 12:15:48;;;;;;;;;;;;;;;;;;6301382;22;19930;-59
2023/03/07 12:18:15;;;;;;;;;;;;;;;;;;6301818;22;19968;-59
2023/03/07 12:20:52;;;;;;;;;;;;;;;;;;6301727;22;20335;-60
2023/03/07 12:23:19;;;;;;;;;;;;;;;;;;6300774;22;20268;-56
2023/03/07 12:25:46;;;;;;;;;;;;;;;;;;6300609;22;19993;-53
2023/03/07 12:28:20;;;;;;;;;;;;;;;;;;6302697;22;20318;-54
2023/03/07 12:30:49;;;;;;;;;;;;;;;;;;6301108;22;19958;-54
2023/03/07 12:33:22;;;;;;;;;;;;;;;;;;6301273;22;19994;-59
2023/03/07 12:35:53;;;;;;;;;;;;;;;;;;6301486;22;19919;-50
2023/03/07 12:38:20;;;;;;;;;;;;;;;;;;6301077;22;19921;-49
2023/03/07 12:40:55;;;;;;;;;;;;;;;;;;6300912;22;19997;-50
2023/03/07 12:43:22;;;;;;;;;;;;;;;;;;6302580;22;20336;-47
2023/03/07 12:45:56;;;;;;;;;;;;;;;;;;6300680;22;19915;-51
2023/03/07 12:48:23;;;;;;;;;;;;;;;;;;6300986;22;20207;-48
2023/03/07 12:50:50;;;;;;;;;;;;;;;;;;6302429;22;19925;-60
2023/03/07 12:53:23;;;;;;;;;;;;;;;;;;6301224;22;20420;-61
2023/03/07 12:55:50;;;;;;;;;;;;;;;;;;6301657;22;19918;-61
2023/03/07 12:58:24;;;;;;;;;;;;;;;;;;6301816;22;19919;-61
2023/03/07 13:00:51;;;;;;;;;;;;;;;;;;6300893;22;19925;-54
2023/03/07 13:03:25;;;;;;;;;;;;;;;;;;6300437;22;20307;-56
2023/03/07 13:05:52;;;;;;;;;;;;;;;;;;6301203;22;19918;-55
2023/03/07 13:08:26;;;;;;;;;;;;;;;;;;6301194;22;19922;-57
2023/03/07 13:10:59;;;;;;;;;;;;;;;;;;6299670;22;19997;-54
2023/03/07 13:13:33;;;;;;;;;;;;;;;;;;6302027;22;19921;-57
2023/03/07 13:16:00;;;;;;;;;;;;;;;;;;6298284;22;19986;-52
2023/03/07 13:18:27;;;;;;;;;;;;;;;;;;6299814;22;19915;-56
2023/03/07 13:21:01;;;;;;;;;;;;;;;;;;6301346;22;19946;-56
2023/03/07 13:23:29;;;;;;;;;;;;;;;;;;6300726;22;19960;-56
2023/03/07 13:26:02;;;;;;;;;;;;;;;;;;6301319;22;19986;-54
2023/03/07 13:28:29;;;;;;;;;;;;;;;;;;6302407;22;19918;-61
2023/03/07 13:30:56;;;;;;;;;;;;;;;;;;6300459;22;19918;-59
2023/03/07 13:33:30;;;;;;;;;;;;;;;;;;6301267;22;19965;-59
2023/03/07 13:35:58;;;;;;;;;;;;;;;;;;6299976;22;19997;-59
2023/03/07 13:38:32;;;;;;;;;;;;;;;;;;6301347;22;19998;-59
2023/03/07 13:40:59;;;;;;;;;;;;;;;;;;6300474;22;20001;-59
2023/03/07 13:43:34;;;;;;;;;;;;;;;;;;6301231;22;19998;-59
2023/03/07 13:46:01;;;;;;;;;;;;;;;;;;6300151;22;20308;-59
2023/03/07 13:48:35;;;;;;;;;;;;;;;;;;6301859;22;19954;-52
2023/03/07 13:51:02;;;;;;;;;;;;;;;;;;6300547;22;20514;-55
2023/03/07 13:53:35;;;;;;;;;;;;;;;;;;6300707;22;19921;-54
2023/03/07 13:56:11;;;;;;;;;;;;;;;;;;6274995;22;19934;-49
2023/03/07 13:58:44;;;;;;;;;;;;;;;;;;6300933;22;19921;-56
2023/03/07 14:01:11;;;;;;;;;;;;;;;;;;6300977;22;19961;-55
2023/03/07 14:03:38;;;;;;;;;;;;;;;;;;6301523;22;19969;-54
2023/03/07 14:06:12;;;;;;;;;;;;;;;;;;6300526;22;19972;-55
2023/03/07 14:08:39;;;;;;;;;;;;;;;;;;6299902;22;19964;-55
2023/03/07 14:11:13;;;;;;;;;;;;;;;;;;6299570;22;19997;-55
2023/03/07 14:13:40;;;;;;;;;;;;;;;;;;6300978;22;19954;-54
2023/03/07 14:16:14;;;;;;;;;;;;;;;;;;6300524;22;20320;-54
2023/03/07 14:18:41;;;;;;;;;;;;;;;;;;6300524;22;19919;-52
2023/03/07 14:21:15;;;;;;;;;;;;;;;;;;6300407;22;19965;-51
2023/03/07 14:23:49;;;;;;;;;;;;;;;;;;6300943;22;19958;-50
2023/03/07 14:26:23;;;;;;;;;;;;;;;;;;6301045;22;19997;-60
2023/03/07 14:28:50;;;;;;;;;;;;;;;;;;6300029;22;19914;-59
2023/03/07 14:31:17;;;;;;;;;;;;;;;;;;6301818;22;19921;-60
2023/03/07 14:33:52;;;;;;;;;;;;;;;;;;6300716;22;19926;-58
2023/03/07 14:36:19;;;;;;;;;;;;;;;;;;6300626;22;19954;-59
2023/03/07 14:38:46;;;;;;;;;;;;;;;;;;6300880;22;19915;-59
2023/03/07 14:41:20;;;;;;;;;;;;;;;;;;6300038;22;19923;-59
2023/03/07 14:43:47;;;;;;;;;;;;;;;;;;6301411;22;19941;-53
2023/03/07 14:46:20;;;;;;;;;;;;;;;;;;6300998;22;20358;-54
2023/03/07 14:48:54;;;;;;;;;;;;;;;;;;6299726;22;19919;-54
2023/03/07 14:51:22;;;;;;;;;;;;;;;;;;6299997;22;20412;-54
2023/03/07 14:53:55;;;;;;;;;;;;;;;;;;6301353;22;19922;-51
2023/03/07 14:56:22;;;;;;;;;;;;;;;;;;6300342;22;19986;-56
2023/03/07 14:58:56;;;;;;;;;;;;;;;;;;6298976;22;20407;-53
2023/03/07 15:01:30;;;;;;;;;;;;;;;;;;6301185;22;19914;-55
2023/03/07 15:04:04;;;;;;;;;;;;;;;;;;6300198;22;19927;-55
2023/03/07 15:06:31;;;;;;;;;;;;;;;;;;6301751;22;19972;-53
2023/03/07 15:09:07;;;;;;;;;;;;;;;;;;6301032;22;19993;-52
2023/03/07 15:11:37;;;;;;;;;;;;;;;;;;6302370;22;20367;-56
2023/03/07 15:14:10;;;;;;;;;;;;;;;;;;6301706;22;19993;-55
2023/03/07 15:16:38;;;;;;;;;;;;;;;;;;6302978;22;19950;-54
2023/03/07 15:19:05;;;;;;;;;;;;;;;;;;6302013;22;20385;-55
2023/03/07 15:21:38;;;;;;;;;;;;;;;;;;6300279;22;19990;-56
2023/03/07 15:24:05;;;;;;;;;;;;;;;;;;6301956;22;19972;-52
2023/03/07 15:26:41;;;;;;;;;;;;;;;;;;6303128;22;19944;-47
2023/03/07 15:29:09;;;;;;;;;;;;;;;;;;6301579;22;19919;-49
2023/03/07 15:31:42;;;;;;;;;;;;;;;;;;6302741;22;19986;-49
2023/03/07 15:34:09;;;;;;;;;;;;;;;;;;6302371;22;19984;-51
2023/03/07 15:36:43;;;;;;;;;;;;;;;;;;6301843;22;19915;-51
2023/03/07 15:39:10;;;;;;;;;;;;;;;;;;6301127;22;20047;-50
2023/03/07 15:41:44;;;;;;;;;;;;;;;;;;6303038;22;19985;-53
2023/03/07 15:44:12;;;;;;;;;;;;;;;;;;6300392;22;20426;-52
2023/03/07 15:46:45;;;;;;;;;;;;;;;;;;6302975;22;19997;-52
2023/03/07 15:49:12;;;;;;;;;;;;;;;;;;6301140;22;20022;-54
2023/03/07 15:51:46;;;;;;;;;;;;;;;;;;6301828;22;19942;-59
2023/03/07 15:54:13;;;;;;;;;;;;;;;;;;6275451;22;19915;-60
2023/03/07 15:56:47;;;;;;;;;;;;;;;;;;6300504;22;19940;-60
2023/03/07 15:59:14;;;;;;;;;;;;;;;;;;6301528;22;20281;-59
2023/03/07 16:01:48;;;;;;;;;;;;;;;;;;6302176;22;19944;-59
2023/03/07 16:04:15;;;;;;;;;;;;;;;;;;6301409;22;20419;-60
2023/03/07 16:06:49;;;;;;;;;;;;;;;;;;6298268;22;19994;-60
2023/03/07 16:09:16;;;;;;;;;;;;;;;;;;6298719;22;20255;-56
2023/03/07 16:11:50;;;;;;;;;;;;;;;;;;6297958;22;19922;-52
2023/03/07 16:14:17;;;;;;;;;;;;;;;;;;6270410;22;20419;-54
2023/03/07 16:16:51;;;;;;;;;;;;;;;;;;6297618;22;20317;-53
2023/03/07 16:19:18;;;;;;;;;;;;;;;;;;6298026;22;19918;-50
2023/03/07 16:21:46;;;;;;;;;;;;;;;;;;6299852;22;19925;-54
2023/03/07 16:24:19;;;;;;;;;;;;;;;;;;6298312;22;20177;-60
2023/03/07 16:26:46;;;;;;;;;;;;;;;;;;6297891;22;19925;-60
2023/03/07 16:29:21;;;;;;;;;;;;;;;;;;6299119;22;19918;-59
2023/03/07 16:31:48;;;;;;;;;;;;;;;;;;6299623;22;20320;-59
2023/03/07 16:34:15;;;;;;;;;;;;;;;;;;6299279;22;19918;-60
2023/03/07 16:36:49;;;;;;;;;;;;;;;;;;6298996;22;19918;-59
2023/03/07 16:39:17;;;;;;;;;;;;;;;;;;6298893;22;19935;-50
2023/03/07 16:41:44;;;;;;;;;;;;;;;;;;6296905;22;19915;-50
2023/03/07 16:44:17;;;;;;;;;;;;;;;;;;6299069;22;19939;-51
2023/03/07 16:46:45;;;;;;;;;;;;;;;;;;6299140;22;19942;-48
2023/03/07 16:49:12;;;;;;;;;;;;;;;;;;6295451;22;20322;-54
2023/03/07 16:51:45;;;;;;;;;;;;;;;;;;6294852;22;19989;-53
2023/03/07 16:54:31;;;;;;;;;;;;;;;;;;6295594;22;20238;-54
2023/03/07 16:56:59;;;;;;;;;;;;;;;;;;6295935;22;19926;-50
2023/03/07 16:59:33;;;;;;;;;;;;;;;;;;6294923;22;19962;-54
2023/03/07 17:02:00;;;;;;;;;;;;;;;;;;6298673;22;19923;-55
2023/03/07 17:04:27;;;;;;;;;;;;;;;;;;6298206;22;19923;-56
2023/03/07 17:07:02;;;;;;;;;;;;;;;;;;6297450;22;19989;-56